sensor_id;sensor_type;location;lat;lon;timestamp;temperature;humidity
32965;DHT22;19317;48.226;11.686;2022-08-21T00:02:24;17.00;99.90
32965;DHT22;19317;48.226;11.686;2022-08-21T00:07:15;16.90;99.90
32965;DHT22;19317;48.226;11.686;2022-08-21T00:12:07;16.90;99.90
32965;DHT22;19317;48.226;11.686;2022-08-21T00:16:57;16.90;99.90
32965;DHT22;19317;48.226;11.686;2022-08-21T00:21:48;17.10;99.90
32965;DHT22;19317;48.226;11.686;2022-08-21T00:26:38;16.80;99.90
32965;DHT22;19317;48.226;11.686;2022-08-21T00:31:28;16.90;99.90
32965;DHT22;19317;48.226;11.686;2022-08-21T00:36:19;16.70;99.90
32965;DHT22;19317;48.226;11.686;2022-08-21T00:41:10;16.60;99.90
32965;DHT22;19317;48.226;11.686;2022-08-21T00:46:03;16.60;99.90
32965;DHT22;19317;48.226;11.686;2022-08-21T00:51:07;16.90;99.90
32965;DHT22;19317;48.226;11.686;2022-08-21T00:55:59;16.60;99.90
32965;DHT22;19317;48.226;11.686;2022-08-21T01:00:51;16.50;99.90
32965;DHT22;19317;48.226;11.686;2022-08-21T01:05:42;16.50;99.90
32965;DHT22;19317;48.226;11.686;2022-08-21T01:10:34;16.50;99.90
32965;DHT22;19317;48.226;11.686;2022-08-21T01:15:29;16.40;99.90
32965;DHT22;19317;48.226;11.686;2022-08-21T01:20:20;16.50;99.90
32965;DHT22;19317;48.226;11.686;2022-08-21T01:25:15;16.40;99.90
32965;DHT22;19317;48.226;11.686;2022-08-21T01:30:27;16.10;99.90
32965;DHT22;19317;48.226;11.686;2022-08-21T01:35:19;16.30;99.90
32965;DHT22;19317;48.226;11.686;2022-08-21T01:40:11;17.00;99.90
32965;DHT22;19317;48.226;11.686;2022-08-21T01:45:02;16.20;99.90
32965;DHT22;19317;48.226;11.686;2022-08-21T01:49:53;16.30;99.90
32965;DHT22;19317;48.226;11.686;2022-08-21T01:54:43;16.20;99.90
32965;DHT22;19317;48.226;11.686;2022-08-21T01:59:34;16.10;99.90
32965;DHT22;19317;48.226;11.686;2022-08-21T02:04:25;16.20;99.90
32965;DHT22;19317;48.226;11.686;2022-08-21T02:09:16;16.10;99.90
32965;DHT22;19317;48.226;11.686;2022-08-21T02:14:12;16.50;99.90
32965;DHT22;19317;48.226;11.686;2022-08-21T02:19:03;16.10;99.90
32965;DHT22;19317;48.226;11.686;2022-08-21T02:23:53;16.00;99.90
32965;DHT22;19317;48.226;11.686;2022-08-21T02:28:44;15.90;99.90
32965;DHT22;19317;48.226;11.686;2022-08-21T02:33:35;16.00;99.90
32965;DHT22;19317;48.226;11.686;2022-08-21T02:38:32;15.90;99.90
32965;DHT22;19317;48.226;11.686;2022-08-21T02:43:25;15.90;99.90
32965;DHT22;19317;48.226;11.686;2022-08-21T02:48:19;15.90;99.90
32965;DHT22;19317;48.226;11.686;2022-08-21T02:53:11;15.90;99.90
32965;DHT22;19317;48.226;11.686;2022-08-21T02:58:06;15.90;99.90
32965;DHT22;19317;48.226;11.686;2022-08-21T03:02:57;15.80;99.90
32965;DHT22;19317;48.226;11.686;2022-08-21T03:07:47;15.80;99.90
32965;DHT22;19317;48.226;11.686;2022-08-21T03:12:38;15.70;99.90
32965;DHT22;19317;48.226;11.686;2022-08-21T03:17:28;15.70;99.90
32965;DHT22;19317;48.226;11.686;2022-08-21T03:22:19;15.70;99.90
32965;DHT22;19317;48.226;11.686;2022-08-21T03:27:09;15.70;99.90
32965;DHT22;19317;48.226;11.686;2022-08-21T03:32:00;15.60;99.90
32965;DHT22;19317;48.226;11.686;2022-08-21T03:36:50;15.60;99.90
32965;DHT22;19317;48.226;11.686;2022-08-21T03:41:41;15.70;99.90
32965;DHT22;19317;48.226;11.686;2022-08-21T03:46:31;15.70;99.90
32965;DHT22;19317;48.226;11.686;2022-08-21T03:51:21;15.60;99.90
32965;DHT22;19317;48.226;11.686;2022-08-21T03:56:12;15.90;99.90
32965;DHT22;19317;48.226;11.686;2022-08-21T04:01:04;15.60;99.90
32965;DHT22;19317;48.226;11.686;2022-08-21T04:05:54;15.20;99.90
32965;DHT22;19317;48.226;11.686;2022-08-21T04:10:48;15.50;99.90
32965;DHT22;19317;48.226;11.686;2022-08-21T04:15:39;15.50;99.90
32965;DHT22;19317;48.226;11.686;2022-08-21T04:20:29;15.40;99.90
32965;DHT22;19317;48.226;11.686;2022-08-21T04:25:21;15.30;99.90
32965;DHT22;19317;48.226;11.686;2022-08-21T04:30:13;15.40;99.90
32965;DHT22;19317;48.226;11.686;2022-08-21T04:35:06;15.30;99.90
